Time;durP1;ratioP1;P1;durP2;ratioP2;P2;SDS_P1;SDS_P2;PMS_P1;PMS_P2;Temp;Humidity;BMP_temperature;BMP_pressure;BME280_temperature;BME280_humidity;BME280_pressure;Samples;Min_cycle;Max_cycle;Signal;HPM_P1;HPM_P2
2022/07/07 00:00:31;;;;;;;5.07;2.00;;;20.00;99.90;;;;;;5058994;28;20539;-81
2022/07/07 00:02:58;;;;;;;3.80;1.73;;;19.90;99.90;;;;;;5077471;28;20485;-80
2022/07/07 00:05:25;;;;;;;3.57;1.83;;;20.00;99.90;;;;;;5078931;28;20486;-82
2022/07/07 00:07:52;;;;;;;5.07;1.73;;;20.00;99.90;;;;;;5059277;28;20487;-82
2022/07/07 00:10:19;;;;;;;5.23;2.40;;;19.90;99.90;;;;;;5059147;28;20442;-82
2022/07/07 00:12:46;;;;;;;3.57;2.30;;;19.90;99.90;;;;;;5075659;28;20541;-80
2022/07/07 00:15:13;;;;;;;5.33;2.10;;;19.90;99.90;;;;;;5078789;28;20574;-81
2022/07/07 00:17:41;;;;;;;5.63;2.23;;;19.90;99.90;;;;;;5073126;28;20570;-82
2022/07/07 00:20:09;;;;;;;2.53;1.53;;;19.90;99.90;;;;;;5060112;28;20515;-83
2022/07/07 00:22:35;;;;;;;8.33;1.77;;;19.90;99.90;;;;;;5064963;28;20460;-83
2022/07/07 00:25:02;;;;;;;3.27;1.80;;;19.90;99.90;;;;;;5071232;28;20508;-80
2022/07/07 00:27:29;;;;;;;6.17;2.17;;;19.90;99.90;;;;;;5085919;28;20471;-80
2022/07/07 00:29:56;;;;;;;4.93;1.90;;;19.90;99.90;;;;;;5067881;28;20452;-81
2022/07/07 00:32:23;;;;;;;3.80;2.00;;;19.90;99.90;;;;;;5059310;28;20460;-81
2022/07/07 00:34:51;;;;;;;4.87;2.40;;;19.90;99.90;;;;;;5062705;28;20930;-82
2022/07/07 00:37:18;;;;;;;6.60;2.17;;;19.90;99.90;;;;;;5070214;28;20534;-82
2022/07/07 00:39:45;;;;;;;5.03;2.03;;;19.90;99.90;;;;;;5068226;28;20547;-80
2022/07/07 00:42:15;;;;;;;4.43;1.60;;;19.90;99.90;;;;;;5057940;28;20487;-82
2022/07/07 00:44:42;;;;;;;4.10;1.70;;;19.90;99.90;;;;;;5067001;28;20891;-82
2022/07/07 00:47:10;;;;;;;3.50;1.80;;;19.90;99.90;;;;;;5067363;28;21015;-81
2022/07/07 00:49:38;;;;;;;6.73;2.50;;;19.90;99.90;;;;;;5066022;28;20526;-82
2022/07/07 00:52:08;;;;;;;8.33;2.17;;;19.90;99.90;;;;;;5077057;28;20459;-82
2022/07/07 00:54:35;;;;;;;6.83;2.20;;;19.90;99.90;;;;;;5075711;28;20517;-81
2022/07/07 00:57:04;;;;;;;3.70;1.80;;;19.90;99.90;;;;;;5078213;28;20921;-82
2022/07/07 00:59:31;;;;;;;3.50;1.40;;;19.90;99.90;;;;;;5080157;28;20986;-82
2022/07/07 01:01:58;;;;;;;3.73;1.53;;;19.90;99.90;;;;;;5078256;28;20489;-81
2022/07/07 01:04:25;;;;;;;9.03;1.80;;;19.90;99.90;;;;;;5077796;28;20510;-79
2022/07/07 01:06:52;;;;;;;4.23;1.80;;;19.80;99.90;;;;;;5077704;28;20497;-83
2022/07/07 01:09:22;;;;;;;3.30;1.40;;;19.80;99.90;;;;;;5078995;28;20561;-82
2022/07/07 01:11:51;;;;;;;3.90;2.00;;;19.80;99.90;;;;;;5078894;28;20486;-81
2022/07/07 01:14:19;;;;;;;3.13;1.50;;;19.70;99.90;;;;;;5078760;28;20537;-81
2022/07/07 01:16:46;;;;;;;4.30;1.93;;;19.70;99.90;;;;;;5079487;28;20458;-82
2022/07/07 01:19:13;;;;;;;3.13;1.47;;;19.70;99.90;;;;;;5077537;28;20518;-82
2022/07/07 01:21:49;;;;;;;2.93;1.37;;;19.70;99.90;;;;;;5076720;28;20554;-81
2022/07/07 01:24:17;;;;;;;2.60;1.40;;;19.70;99.90;;;;;;5065471;28;20432;-79
2022/07/07 01:26:44;;;;;;;3.13;1.37;;;19.60;99.90;;;;;;5087073;28;20475;-79
2022/07/07 01:29:11;;;;;;;4.10;1.70;;;19.60;99.90;;;;;;5069903;28;20503;-79
2022/07/07 01:31:38;;;;;;;5.00;1.83;;;19.60;99.90;;;;;;5066750;28;20448;-79
2022/07/07 01:34:05;;;;;;;3.63;1.90;;;19.60;99.90;;;;;;5081668;28;20455;-80
2022/07/07 01:36:32;;;;;;;3.20;1.10;;;19.60;99.90;;;;;;5061637;28;20580;-80
2022/07/07 01:38:59;;;;;;;3.30;1.77;;;19.60;99.90;;;;;;5093484;28;20455;-78
2022/07/07 01:41:27;;;;;;;3.60;1.50;;;19.60;99.90;;;;;;5076651;28;20839;-80
2022/07/07 01:43:54;;;;;;;3.53;1.60;;;19.50;99.90;;;;;;5056923;28;20825;-82
2022/07/07 01:46:21;;;;;;;2.30;1.17;;;19.60;99.90;;;;;;5057530;28;20857;-81
2022/07/07 01:48:48;;;;;;;3.10;1.57;;;19.60;99.90;;;;;;5057156;28;20539;-81
2022/07/07 01:51:15;;;;;;;3.80;1.53;;;19.60;99.90;;;;;;5057464;28;20470;-82
2022/07/07 01:53:41;;;;;;;4.83;1.57;;;19.60;99.90;;;;;;5056223;28;20567;-82
2022/07/07 01:56:08;;;;;;;2.87;1.60;;;19.50;99.90;;;;;;5073921;28;20950;-81
2022/07/07 01:58:37;;;;;;;2.97;1.57;;;19.50;99.90;;;;;;5065192;28;21395;-81
2022/07/07 02:01:04;;;;;;;4.43;2.00;;;19.50;99.90;;;;;;5057548;28;20514;-82
2022/07/07 02:03:31;;;;;;;6.60;1.70;;;19.50;99.90;;;;;;5056277;28;20567;-82
2022/07/07 02:05:58;;;;;;;2.70;1.40;;;19.50;99.90;;;;;;5070473;28;20494;-79
2022/07/07 02:08:24;;;;;;;3.50;1.90;;;19.50;99.90;;;;;;5075164;28;20570;-81
2022/07/07 02:13:37;;;;;;;4.00;1.83;;;19.50;99.90;;;;;;5067586;28;20458;-79
2022/07/07 02:16:04;;;;;;;4.23;1.93;;;19.40;99.90;;;;;;5056238;28;20522;-80
2022/07/07 02:18:35;;;;;;;5.27;2.33;;;19.40;99.90;;;;;;5061532;28;20553;-81
2022/07/07 02:21:02;;;;;;;4.93;2.67;;;19.40;99.90;;;;;;5062960;28;20539;-81
2022/07/07 02:23:29;;;;;;;4.40;2.73;;;19.40;99.90;;;;;;5056312;28;20490;-81
2022/07/07 02:25:56;;;;;;;5.33;2.57;;;19.40;99.90;;;;;;5068415;28;20518;-81
2022/07/07 02:28:23;;;;;;;5.90;3.50;;;19.40;99.90;;;;;;5074651;28;20549;-80
2022/07/07 02:30:52;;;;;;;5.10;3.50;;;19.40;99.90;;;;;;5075321;28;20454;-81
2022/07/07 02:33:19;;;;;;;6.13;3.67;;;19.40;99.90;;;;;;5072698;28;20800;-81
2022/07/07 02:35:47;;;;;;;8.17;3.97;;;19.40;99.90;;;;;;5055703;28;20553;-82
2022/07/07 02:38:14;;;;;;;5.20;3.60;;;19.40;99.90;;;;;;5056026;28;20502;-81
2022/07/07 02:40:41;;;;;;;6.77;3.83;;;19.40;99.90;;;;;;5056468;28;20488;-81
2022/07/07 02:43:12;;;;;;;6.23;4.03;;;19.40;99.90;;;;;;5055821;28;20463;-82
2022/07/07 02:45:39;;;;;;;7.10;4.03;;;19.40;99.90;;;;;;5056288;28;20424;-81
2022/07/07 02:48:08;;;;;;;6.60;3.20;;;19.30;99.90;;;;;;5056205;28;20474;-81
2022/07/07 02:50:34;;;;;;;5.77;3.87;;;19.20;99.90;;;;;;5055657;28;20451;-81
2022/07/07 02:53:01;;;;;;;6.00;3.50;;;19.20;99.90;;;;;;5059721;28;20515;-80
2022/07/07 02:55:28;;;;;;;5.73;3.10;;;19.20;99.90;;;;;;5078357;28;20568;-82
2022/07/07 02:57:55;;;;;;;6.53;3.87;;;19.20;99.90;;;;;;5081009;28;20474;-83
2022/07/07 03:00:22;;;;;;;5.97;4.07;;;19.20;99.90;;;;;;5067987;28;20907;-82
2022/07/07 03:02:49;;;;;;;5.37;3.40;;;19.20;99.90;;;;;;5078152;28;20450;-81
2022/07/07 03:05:17;;;;;;;7.57;3.87;;;19.20;99.90;;;;;;5079854;28;20453;-81
2022/07/07 03:07:44;;;;;;;7.40;4.37;;;19.20;99.90;;;;;;5063681;28;20558;-79
2022/07/07 03:10:11;;;;;;;5.57;3.73;;;19.10;99.90;;;;;;5073245;28;20481;-79
2022/07/07 03:12:38;;;;;;;6.53;4.80;;;19.10;99.90;;;;;;5064477;28;20544;-80
2022/07/07 03:15:06;;;;;;;8.30;4.33;;;19.00;99.90;;;;;;5070587;28;20915;-80
2022/07/07 03:17:32;;;;;;;5.97;4.50;;;19.00;99.90;;;;;;5079530;28;21173;-81
2022/07/07 03:19:59;;;;;;;5.40;4.30;;;18.90;99.90;;;;;;5079144;28;20545;-80
2022/07/07 03:22:27;;;;;;;7.03;4.23;;;18.90;99.90;;;;;;5066897;28;20542;-82
2022/07/07 03:24:54;;;;;;;7.50;4.90;;;18.80;99.90;;;;;;5068846;28;20531;-83
2022/07/07 03:27:21;;;;;;;7.73;5.80;;;18.80;99.90;;;;;;5133315;22;20541;-82
2022/07/07 03:29:48;;;;;;;5.03;4.20;;;18.70;99.90;;;;;;5084867;28;20923;-81
2022/07/07 03:32:15;;;;;;;8.87;4.87;;;18.70;99.90;;;;;;5092135;28;20485;-81
2022/07/07 03:34:42;;;;;;;7.40;4.87;;;18.70;99.90;;;;;;5093098;28;20452;-82
2022/07/07 03:37:09;;;;;;;6.70;5.67;;;18.70;99.90;;;;;;5091449;28;20562;-81
2022/07/07 03:39:37;;;;;;;7.70;5.70;;;18.60;99.90;;;;;;5096255;28;20487;-80
2022/07/07 03:42:04;;;;;;;6.30;4.93;;;18.50;99.90;;;;;;5093781;28;20544;-80
2022/07/07 03:44:31;;;;;;;7.83;6.00;;;18.50;99.90;;;;;;5095243;28;20899;-80
2022/07/07 03:46:58;;;;;;;7.97;6.33;;;18.50;99.90;;;;;;5098037;28;20516;-79
2022/07/07 03:49:25;;;;;;;8.40;6.00;;;18.40;99.90;;;;;;5095088;28;20541;-80
2022/07/07 03:51:51;;;;;;;8.30;6.10;;;18.40;99.90;;;;;;5089578;28;20461;-80
2022/07/07 03:54:19;;;;;;;7.27;5.80;;;18.40;99.90;;;;;;5097472;28;20528;-81
2022/07/07 03:56:47;;;;;;;8.93;5.30;;;18.40;99.90;;;;;;5098690;28;20986;-81
2022/07/07 03:59:14;;;;;;;10.00;6.03;;;18.40;99.90;;;;;;5099168;28;20518;-81
2022/07/07 04:01:44;;;;;;;7.03;5.93;;;18.40;99.90;;;;;;5098183;28;20456;-81
2022/07/07 04:04:11;;;;;;;10.40;6.03;;;18.40;99.90;;;;;;5096587;28;20483;-81
2022/07/07 04:06:38;;;;;;;8.77;6.20;;;18.30;99.90;;;;;;5078339;28;20484;-83
2022/07/07 04:09:05;;;;;;;6.93;4.40;;;18.30;99.90;;;;;;5077889;28;20552;-80
2022/07/07 04:11:32;;;;;;;6.47;5.27;;;18.30;99.90;;;;;;5096350;28;20965;-82
2022/07/07 04:14:01;;;;;;;6.40;5.07;;;18.30;99.90;;;;;;5097919;28;20539;-80
2022/07/07 04:16:29;;;;;;;6.23;5.60;;;18.30;99.90;;;;;;5079544;28;20878;-82
2022/07/07 04:18:56;;;;;;;7.83;6.13;;;18.30;99.90;;;;;;5081691;28;20483;-80
2022/07/07 04:21:23;;;;;;;7.80;5.07;;;18.30;99.90;;;;;;5096902;28;20901;-80
2022/07/07 04:23:50;;;;;;;11.10;5.33;;;18.30;99.90;;;;;;5081486;28;20524;-80
2022/07/07 04:26:17;;;;;;;8.37;4.90;;;18.30;99.90;;;;;;5096932;28;20463;-82
2022/07/07 04:28:43;;;;;;;7.10;5.77;;;18.40;99.90;;;;;;5093202;28;20560;-81
2022/07/07 04:31:12;;;;;;;8.20;6.20;;;18.40;99.90;;;;;;5078789;28;20544;-80
2022/07/07 04:33:39;;;;;;;9.70;5.00;;;18.30;99.90;;;;;;5078903;28;20561;-81
2022/07/07 04:36:06;;;;;;;5.80;4.90;;;18.30;99.90;;;;;;5096161;28;20572;-79
2022/07/07 04:38:33;;;;;;;6.40;5.17;;;18.30;99.90;;;;;;5095592;28;20486;-82
2022/07/07 04:41:00;;;;;;;6.93;6.23;;;18.30;99.90;;;;;;5085116;28;20485;-81
2022/07/07 04:43:26;;;;;;;11.80;5.40;;;18.30;99.90;;;;;;5095977;28;20457;-80
2022/07/07 04:45:53;;;;;;;5.93;5.03;;;18.30;99.90;;;;;;5084965;28;20442;-79
2022/07/07 04:48:22;;;;;;;10.40;5.67;;;18.30;99.90;;;;;;5085818;28;20560;-80
2022/07/07 04:50:49;;;;;;;6.27;5.00;;;18.30;99.90;;;;;;5095816;28;20487;-80
2022/07/07 04:53:15;;;;;;;7.07;5.20;;;18.30;99.90;;;;;;5079512;28;20834;-81
2022/07/07 04:55:42;;;;;;;9.03;4.60;;;18.30;99.90;;;;;;5076577;28;20477;-81
2022/07/07 04:58:09;;;;;;;10.10;4.53;;;18.30;99.90;;;;;;5076867;28;20557;-78
2022/07/07 05:00:36;;;;;;;6.30;4.63;;;18.30;99.90;;;;;;5081930;28;20544;-80
2022/07/07 05:03:03;;;;;;;7.07;5.53;;;18.30;99.90;;;;;;5093255;28;20538;-80
2022/07/07 05:05:31;;;;;;;7.40;5.73;;;18.30;99.90;;;;;;5096791;28;20521;-80
2022/07/07 05:07:58;;;;;;;8.07;5.43;;;18.30;99.90;;;;;;5096605;28;20507;-80
2022/07/07 05:10:25;;;;;;;9.60;5.60;;;18.30;99.90;;;;;;5078380;28;20461;-80
2022/07/07 05:12:52;;;;;;;6.80;5.40;;;18.20;99.90;;;;;;5094076;28;20465;-82
2022/07/07 05:15:19;;;;;;;8.27;5.57;;;18.20;99.90;;;;;;5093197;28;20457;-81
2022/07/07 05:17:46;;;;;;;8.07;6.00;;;18.20;99.90;;;;;;5077163;28;20579;-79
2022/07/07 05:20:13;;;;;;;9.30;6.10;;;18.20;99.90;;;;;;5077212;28;20485;-79
2022/07/07 05:22:41;;;;;;;5.67;4.47;;;18.30;99.90;;;;;;5075688;28;20555;-78
2022/07/07 05:25:08;;;;;;;6.33;3.10;;;18.20;99.90;;;;;;5076594;28;20476;-80
2022/07/07 05:27:35;;;;;;;4.00;2.80;;;18.10;99.90;;;;;;5089045;28;20981;-79
2022/07/07 05:30:02;;;;;;;3.33;2.30;;;18.10;99.90;;;;;;5091127;28;20476;-79
2022/07/07 05:32:29;;;;;;;4.23;2.73;;;18.00;99.90;;;;;;5093252;28;20467;-80
2022/07/07 05:34:55;;;;;;;4.27;2.77;;;17.90;99.90;;;;;;5095566;28;20547;-79
2022/07/07 05:37:22;;;;;;;3.97;2.47;;;17.90;99.90;;;;;;5078263;28;20482;-80
2022/07/07 05:39:50;;;;;;;3.70;2.10;;;17.80;99.90;;;;;;5075860;28;20543;-81
2022/07/07 05:42:17;;;;;;;3.73;2.30;;;17.80;99.90;;;;;;5076665;28;20543;-81
2022/07/07 05:44:44;;;;;;;3.10;1.90;;;17.80;99.90;;;;;;5075205;28;20536;-81
2022/07/07 05:47:11;;;;;;;5.20;2.50;;;17.80;99.90;;;;;;5075262;28;20448;-81
2022/07/07 05:49:38;;;;;;;11.23;2.43;;;17.80;99.90;;;;;;5073029;28;20451;-80
2022/07/07 05:52:06;;;;;;;3.50;2.20;;;17.80;99.90;;;;;;5087227;28;20456;-78
2022/07/07 05:54:32;;;;;;;2.93;2.20;;;17.80;99.90;;;;;;5091957;28;20457;-78
2022/07/07 05:57:01;;;;;;;4.20;2.73;;;17.80;99.90;;;;;;5081094;28;20575;-77
2022/07/07 05:59:28;;;;;;;3.70;3.00;;;17.80;99.90;;;;;;5091261;28;20903;-77
2022/07/07 06:01:55;;;;;;;2.77;2.43;;;17.90;99.90;;;;;;5091320;28;20963;-77
2022/07/07 06:04:23;;;;;;;4.03;2.77;;;18.10;99.90;;;;;;5091193;28;20911;-80
2022/07/07 06:06:50;;;;;;;4.00;2.53;;;18.20;99.90;;;;;;5076409;28;20459;-76
2022/07/07 06:09:18;;;;;;;3.90;2.87;;;18.20;99.90;;;;;;5071642;28;20488;-78
2022/07/07 06:11:44;;;;;;;4.00;2.70;;;18.30;99.90;;;;;;5087061;28;20472;-79
2022/07/07 06:14:13;;;;;;;4.10;3.07;;;18.50;99.90;;;;;;5092126;28;20884;-77
2022/07/07 06:16:41;;;;;;;5.43;2.90;;;18.40;99.90;;;;;;5077278;28;20572;-77
2022/07/07 06:19:08;;;;;;;4.37;3.40;;;18.50;99.90;;;;;;5078751;28;20522;-79
2022/07/07 06:21:35;;;;;;;4.37;3.20;;;18.60;99.90;;;;;;5090001;28;20460;-78
2022/07/07 06:24:02;;;;;;;7.03;3.60;;;18.60;99.90;;;;;;5091205;28;20456;-77
2022/07/07 06:26:29;;;;;;;3.90;3.40;;;18.60;99.90;;;;;;5075990;28;20540;-81
2022/07/07 06:28:56;;;;;;;3.93;3.10;;;18.60;99.90;;;;;;5073012;28;20573;-79
2022/07/07 06:31:24;;;;;;;4.27;3.40;;;18.60;99.90;;;;;;5083697;28;20456;-77
2022/07/07 06:33:51;;;;;;;5.23;3.50;;;18.70;99.90;;;;;;5088338;28;20541;-78
2022/07/07 06:36:18;;;;;;;4.10;3.13;;;18.60;99.90;;;;;;5088308;28;20564;-76
2022/07/07 06:38:45;;;;;;;5.23;3.33;;;18.60;99.90;;;;;;5092973;28;20508;-78
2022/07/07 06:41:12;;;;;;;6.13;3.17;;;18.50;99.90;;;;;;5079832;28;20569;-79
2022/07/07 06:43:39;;;;;;;5.17;3.27;;;18.50;99.90;;;;;;5072566;28;20457;-79
2022/07/07 06:46:06;;;;;;;5.17;3.50;;;18.50;99.90;;;;;;5084525;28;20622;-77
2022/07/07 06:48:34;;;;;;;3.70;3.03;;;18.40;99.90;;;;;;5091151;28;20477;-77
2022/07/07 06:51:01;;;;;;;5.27;3.47;;;18.40;99.90;;;;;;5073091;28;20458;-78
2022/07/07 06:53:28;;;;;;;4.70;2.63;;;18.30;99.90;;;;;;5072476;28;20543;-77
2022/07/07 06:55:55;;;;;;;4.03;2.67;;;18.20;99.90;;;;;;5081022;28;20495;-78
2022/07/07 06:58:22;;;;;;;4.40;2.20;;;18.00;99.90;;;;;;5088801;28;20849;-76
2022/07/07 07:00:49;;;;;;;3.10;1.87;;;17.90;99.90;;;;;;5072931;28;20878;-77
2022/07/07 07:03:16;;;;;;;5.63;1.97;;;17.90;99.90;;;;;;5083259;28;20510;-77
2022/07/07 07:05:44;;;;;;;3.80;1.90;;;17.90;99.90;;;;;;5091345;28;20534;-80
2022/07/07 07:08:11;;;;;;;3.93;1.73;;;18.00;99.90;;;;;;5092250;28;20545;-79
2022/07/07 07:10:38;;;;;;;4.33;2.00;;;18.00;99.90;;;;;;5091658;28;20461;-78
2022/07/07 07:13:05;;;;;;;6.03;2.10;;;18.20;99.90;;;;;;5091571;28;20556;-79
2022/07/07 07:15:32;;;;;;;3.50;2.00;;;18.30;99.90;;;;;;5083297;28;20462;-77
2022/07/07 07:17:58;;;;;;;2.73;1.43;;;18.30;99.90;;;;;;5071819;28;20651;-77
2022/07/07 07:20:25;;;;;;;2.40;1.40;;;18.20;99.90;;;;;;5079580;28;20484;-80
2022/07/07 07:22:53;;;;;;;3.43;1.67;;;18.10;99.90;;;;;;5085139;28;20902;-79
2022/07/07 07:25:20;;;;;;;2.40;0.97;;;17.90;99.90;;;;;;5077158;28;20527;-76
2022/07/07 07:27:47;;;;;;;3.93;1.40;;;17.70;99.90;;;;;;5091991;28;20493;-77
2022/07/07 07:30:15;;;;;;;2.73;0.80;;;17.70;99.90;;;;;;5087458;28;21073;-77
2022/07/07 07:32:42;;;;;;;4.20;1.00;;;17.50;99.90;;;;;;5072037;28;20464;-78
2022/07/07 07:35:10;;;;;;;2.90;1.10;;;17.40;99.90;;;;;;5075392;28;20510;-76
2022/07/07 07:37:38;;;;;;;1.77;0.70;;;17.40;99.90;;;;;;5091023;28;20515;-77
2022/07/07 07:40:08;;;;;;;4.23;1.10;;;17.50;99.90;;;;;;5089795;28;20461;-78
2022/07/07 07:42:35;;;;;;;2.60;0.90;;;17.50;99.90;;;;;;5075632;28;20973;-77
2022/07/07 07:45:11;;;;;;;2.67;1.10;;;17.60;99.90;;;;;;5075566;28;20850;-78
2022/07/07 07:47:39;;;;;;;3.60;1.10;;;17.70;99.90;;;;;;5075497;28;20499;-79
2022/07/07 07:50:07;;;;;;;2.17;1.00;;;18.00;99.90;;;;;;5079120;28;20562;-78
2022/07/07 07:52:34;;;;;;;2.10;1.27;;;18.30;99.90;;;;;;5095788;28;20542;-80
2022/07/07 07:55:01;;;;;;;2.37;1.00;;;18.50;99.90;;;;;;5092682;28;20841;-77
2022/07/07 07:57:29;;;;;;;5.27;1.23;;;18.70;99.90;;;;;;5093165;28;20523;-79
2022/07/07 07:59:56;;;;;;;3.90;1.20;;;18.90;99.90;;;;;;5094099;28;20545;-80
2022/07/07 08:02:23;;;;;;;3.37;1.50;;;19.20;99.90;;;;;;5074792;28;20550;-79
2022/07/07 08:04:50;;;;;;;4.53;1.40;;;19.20;99.90;;;;;;5087795;28;20503;-78
2022/07/07 08:07:17;;;;;;;3.80;1.73;;;19.30;99.90;;;;;;5095627;28;20528;-80
2022/07/07 08:09:44;;;;;;;2.57;1.10;;;19.20;99.90;;;;;;5093891;28;20549;-78
2022/07/07 08:12:11;;;;;;;6.00;1.70;;;19.10;99.90;;;;;;5095736;28;20535;-78
2022/07/07 08:14:40;;;;;;;4.83;1.50;;;18.90;99.90;;;;;;5079274;28;20458;-78
2022/07/07 08:17:07;;;;;;;4.23;1.90;;;18.80;99.90;;;;;;5075122;28;20487;-78
2022/07/07 08:19:34;;;;;;;3.63;1.20;;;18.70;99.90;;;;;;5085281;28;20492;-78
2022/07/07 08:22:01;;;;;;;5.30;1.43;;;18.60;99.90;;;;;;5095581;28;20895;-78
2022/07/07 08:24:28;;;;;;;2.77;1.23;;;18.40;99.90;;;;;;5092903;28;20492;-80
2022/07/07 08:26:55;;;;;;;4.37;2.03;;;18.50;99.90;;;;;;5092975;28;20469;-79
2022/07/07 08:29:22;;;;;;;4.53;1.40;;;18.60;99.90;;;;;;5093013;28;21048;-77
2022/07/07 08:31:50;;;;;;;2.40;1.20;;;18.70;99.90;;;;;;5094562;28;20492;-78
2022/07/07 08:34:17;;;;;;;4.43;1.37;;;18.80;99.90;;;;;;5094432;28;20486;-77
2022/07/07 08:36:43;;;;;;;3.03;1.40;;;18.90;99.90;;;;;;5087952;28;20529;-80
2022/07/07 08:39:10;;;;;;;2.67;1.00;;;19.00;99.90;;;;;;5076237;28;20546;-79
2022/07/07 08:41:38;;;;;;;2.40;1.10;;;19.20;99.90;;;;;;5089637;28;20584;-78
2022/07/07 08:44:05;;;;;;;3.80;1.27;;;19.30;99.90;;;;;;5094161;28;20482;-79
2022/07/07 08:46:32;;;;;;;5.00;1.20;;;19.60;99.90;;;;;;5086707;28;20544;-79
2022/07/07 08:49:00;;;;;;;3.13;1.03;;;19.70;99.90;;;;;;5085880;28;20553;-79
2022/07/07 08:51:27;;;;;;;3.10;1.03;;;19.60;99.90;;;;;;5091725;28;20584;-78
2022/07/07 08:53:54;;;;;;;2.60;0.97;;;19.80;99.90;;;;;;5092497;28;20878;-79
2022/07/07 08:56:22;;;;;;;3.20;1.40;;;20.00;99.90;;;;;;5073585;28;20534;-79
2022/07/07 08:58:50;;;;;;;2.53;1.20;;;20.20;99.90;;;;;;5073724;28;21081;-78
2022/07/07 09:01:17;;;;;;;4.30;1.20;;;20.20;99.90;;;;;;5075441;28;20534;-77
2022/07/07 09:03:44;;;;;;;3.30;0.80;;;20.20;99.90;;;;;;5075440;28;20981;-79
2022/07/07 09:06:13;;;;;;;3.13;0.83;;;19.90;99.90;;;;;;5090763;28;20456;-80
2022/07/07 09:08:40;;;;;;;4.13;1.20;;;19.70;99.90;;;;;;5076657;28;20475;-79
2022/07/07 09:11:09;;;;;;;3.53;1.20;;;19.60;99.90;;;;;;5081306;28;20457;-79
2022/07/07 09:13:37;;;;;;;3.20;1.30;;;19.60;99.90;;;;;;5092279;28;20465;-79
2022/07/07 09:16:13;;;;;;;4.47;1.23;;;19.60;99.90;;;;;;5092705;28;20452;-79
2022/07/07 09:18:44;;;;;;;5.93;1.20;;;19.70;99.90;;;;;;5092478;28;20581;-79
2022/07/07 09:24:06;;;;;;;2.93;1.10;;;19.80;99.90;;;;;;5087958;27;20536;-79
2022/07/07 09:26:37;;;;;;;2.93;1.00;;;19.90;99.90;;;;;;5088105;28;20485;-79
2022/07/07 09:29:04;;;;;;;4.67;1.20;;;19.80;99.90;;;;;;5072637;28;20550;-79
2022/07/07 09:31:54;;;;;;;3.20;1.10;;;19.80;99.90;;;;;;5068843;28;20542;-79
2022/07/07 09:34:23;;;;;;;2.57;1.30;;;19.70;99.90;;;;;;5069505;28;20528;-78
2022/07/07 09:39:43;;;;;;;3.50;1.00;;;19.70;99.90;;;;;;5070036;28;20520;-77
2022/07/07 09:42:21;;;;;;;1.80;0.77;;;19.70;99.90;;;;;;5076837;28;20491;-77
2022/07/07 09:44:49;;;;;;;3.63;1.20;;;19.90;99.90;;;;;;5063479;28;20535;-78
2022/07/07 09:47:16;;;;;;;2.27;0.90;;;20.10;99.90;;;;;;5049143;28;20519;-78
2022/07/07 09:49:44;;;;;;;3.77;1.10;;;20.40;99.90;;;;;;5064802;28;20451;-79
2022/07/07 09:52:17;;;;;;;1.90;0.90;;;20.50;99.90;;;;;;5067905;28;20443;-80
2022/07/07 09:54:49;;;;;;;2.50;0.80;;;20.50;99.90;;;;;;5067137;28;20458;-76
2022/07/07 09:57:17;;;;;;;2.43;0.80;;;20.40;99.90;;;;;;5064286;28;20550;-79
2022/07/07 09:59:44;;;;;;;3.70;0.93;;;20.40;99.90;;;;;;5067488;28;20447;-79
2022/07/07 10:02:19;;;;;;;2.53;1.00;;;20.30;99.90;;;;;;5067949;28;20561;-78
2022/07/07 10:04:49;;;;;;;3.13;1.20;;;20.50;99.90;;;;;;5067443;28;20821;-79
2022/07/07 10:07:19;;;;;;;1.80;0.83;;;20.80;99.90;;;;;;5067907;28;20449;-77
2022/07/07 10:09:48;;;;;;;8.33;1.23;;;20.70;99.90;;;;;;5067796;28;21065;-79
2022/07/07 10:12:17;;;;;;;3.47;1.10;;;20.50;99.90;;;;;;5068379;28;20448;-76
2022/07/07 10:14:46;;;;;;;2.90;0.90;;;20.20;99.90;;;;;;5067620;28;20549;-79
2022/07/07 10:17:16;;;;;;;2.33;0.90;;;19.90;99.90;;;;;;5067742;28;20461;-77
2022/07/07 10:19:43;;;;;;;1.90;0.70;;;19.70;99.90;;;;;;5067999;28;20451;-80
2022/07/07 10:22:12;;;;;;;5.10;0.87;;;19.40;99.90;;;;;;5067723;28;20538;-80
2022/07/07 10:24:40;;;;;;;1.70;0.73;;;19.30;99.90;;;;;;5067245;28;20491;-79
2022/07/07 10:27:08;;;;;;;1.80;0.70;;;19.60;99.90;;;;;;5068802;28;20450;-78
2022/07/07 10:29:41;;;;;;;2.47;0.70;;;19.90;99.90;;;;;;5062505;28;20516;-79
2022/07/07 10:32:09;;;;;;;2.97;0.80;;;20.50;99.90;;;;;;5081218;28;20478;-78
2022/07/07 10:34:38;;;;;;;3.83;1.00;;;21.20;99.90;;;;;;5062621;28;20960;-78
2022/07/07 10:37:10;;;;;;;2.73;0.90;;;22.30;99.90;;;;;;5054849;28;20555;-79
2022/07/07 10:39:42;;;;;;;2.90;0.80;;;23.10;99.90;;;;;;5054539;28;20440;-78
2022/07/07 10:42:53;;;;;;;1.83;0.80;;;23.10;99.90;;;;;;5066043;28;20485;-79
2022/07/07 10:45:23;;;;;;;2.83;0.70;;;22.70;99.90;;;;;;5074275;28;20546;-79
2022/07/07 10:47:50;;;;;;;1.87;0.60;;;22.20;99.90;;;;;;5059768;28;20471;-79
2022/07/07 10:50:31;;;;;;;2.33;0.70;;;22.00;99.90;;;;;;5072468;28;20457;-78
2022/07/07 10:52:59;;;;;;;1.73;0.73;;;22.00;99.90;;;;;;5059255;28;20960;-78
2022/07/07 10:55:54;;;;;;;1.60;0.60;;;21.70;99.90;;;;;;5054850;28;20918;-77
2022/07/07 10:58:55;;;;;;;3.77;0.80;;;21.60;99.90;;;;;;5030291;28;20555;-79
2022/07/07 11:01:25;;;;;;;1.87;0.73;;;21.40;99.90;;;;;;5054224;28;21041;-78
2022/07/07 11:03:52;;;;;;;4.60;0.90;;;21.20;99.90;;;;;;5054553;28;20494;-79
2022/07/07 11:06:19;;;;;;;3.80;0.90;;;20.90;99.90;;;;;;5054912;28;20902;-79
2022/07/07 11:08:59;;;;;;;2.93;0.90;;;20.80;99.90;;;;;;5055296;28;20463;-79
2022/07/07 11:11:27;;;;;;;3.20;0.87;;;20.70;99.90;;;;;;5053993;28;20521;-79
2022/07/07 11:14:06;;;;;;;5.23;1.10;;;20.60;99.90;;;;;;5054311;28;20523;-78
2022/07/07 11:16:34;;;;;;;2.20;0.90;;;20.50;99.90;;;;;;5054813;28;20483;-80
2022/07/07 11:19:04;;;;;;;4.70;1.30;;;20.60;99.90;;;;;;5054599;28;20995;-79
2022/07/07 11:21:36;;;;;;;2.20;0.80;;;20.80;99.90;;;;;;5055137;28;21037;-80
2022/07/07 11:24:13;;;;;;;3.80;0.90;;;21.20;99.90;;;;;;5054071;28;20523;-79
2022/07/07 11:26:40;;;;;;;2.00;0.90;;;21.80;99.90;;;;;;5054634;28;20450;-79
2022/07/07 11:29:07;;;;;;;2.30;1.03;;;22.30;99.90;;;;;;5054496;28;21091;-78
2022/07/07 11:31:35;;;;;;;3.03;0.83;;;22.50;99.90;;;;;;5054639;28;20887;-78
2022/07/07 11:34:04;;;;;;;3.93;1.43;;;22.50;99.90;;;;;;5054132;28;20479;-77
2022/07/07 11:36:31;;;;;;;2.30;0.90;;;22.30;99.90;;;;;;5054684;28;20551;-79
2022/07/07 11:39:04;;;;;;;3.20;0.80;;;21.80;99.90;;;;;;5054429;28;20471;-80
2022/07/07 11:41:42;;;;;;;2.50;0.90;;;21.70;99.90;;;;;;5054719;28;20550;-79
2022/07/07 11:44:18;;;;;;;2.30;0.83;;;21.70;99.90;;;;;;5054624;28;20519;-81
2022/07/07 11:46:48;;;;;;;1.90;0.80;;;21.60;99.90;;;;;;5055486;28;20482;-79
2022/07/07 11:49:18;;;;;;;2.23;0.77;;;21.50;99.90;;;;;;5053506;28;20550;-78
2022/07/07 11:51:46;;;;;;;3.90;0.70;;;21.40;99.90;;;;;;5044432;28;20448;-79
2022/07/07 11:54:13;;;;;;;2.20;0.83;;;21.40;99.90;;;;;;5043364;28;20446;-80
2022/07/07 11:56:40;;;;;;;4.33;0.97;;;21.30;99.90;;;;;;5041262;28;20532;-82
2022/07/07 11:59:09;;;;;;;2.57;0.90;;;21.40;99.90;;;;;;5040068;28;21082;-77
2022/07/07 12:01:40;;;;;;;2.17;0.73;;;21.30;99.90;;;;;;5045919;28;20828;-78
2022/07/07 12:04:15;;;;;;;3.37;0.73;;;21.30;99.90;;;;;;5047111;28;20527;-80
2022/07/07 12:06:42;;;;;;;2.63;0.90;;;21.20;99.90;;;;;;5050651;28;20538;-82
2022/07/07 12:09:10;;;;;;;4.27;0.70;;;21.00;99.90;;;;;;5049432;28;20542;-83
2022/07/07 12:11:38;;;;;;;4.70;0.80;;;20.90;99.90;;;;;;5043911;28;20526;-82
2022/07/07 12:14:05;;;;;;;4.13;0.90;;;20.70;99.90;;;;;;5046110;28;20451;-82
2022/07/07 12:16:42;;;;;;;1.80;1.00;;;20.60;99.90;;;;;;5047274;28;20511;-78
2022/07/07 12:19:09;;;;;;;2.33;0.80;;;20.50;99.90;;;;;;5045019;28;20521;-81
2022/07/07 12:21:44;;;;;;;3.30;0.90;;;20.80;99.90;;;;;;5045495;28;20460;-80
2022/07/07 12:24:14;;;;;;;2.73;0.80;;;21.30;99.90;;;;;;5045480;28;20575;-81
2022/07/07 12:26:47;;;;;;;3.40;1.03;;;21.70;99.90;;;;;;5050480;28;20448;-82
2022/07/07 12:29:32;;;;;;;2.03;0.60;;;22.00;99.90;;;;;;5053953;28;20484;-84
2022/07/07 12:31:58;;;;;;;2.13;0.70;;;21.90;99.90;;;;;;5053601;28;20457;-80
2022/07/07 12:34:25;;;;;;;1.90;0.80;;;21.70;99.90;;;;;;5048368;28;20867;-80
2022/07/07 12:36:54;;;;;;;4.33;0.80;;;21.60;99.90;;;;;;5053264;28;20551;-80
2022/07/07 12:39:21;;;;;;;4.83;0.80;;;21.50;99.90;;;;;;5055341;28;20863;-80
2022/07/07 12:41:51;;;;;;;4.27;0.73;;;21.40;99.90;;;;;;5051594;28;20459;-80
2022/07/07 12:44:19;;;;;;;2.63;1.00;;;21.50;99.90;;;;;;5053529;28;20493;-80
2022/07/07 12:46:47;;;;;;;5.33;0.90;;;21.30;99.90;;;;;;5049933;28;20456;-81
2022/07/07 12:49:14;;;;;;;2.77;0.90;;;21.30;99.90;;;;;;5053612;28;20472;-81
2022/07/07 12:51:45;;;;;;;2.83;0.80;;;21.30;99.90;;;;;;5051836;28;20519;-80
2022/07/07 12:54:23;;;;;;;2.57;0.90;;;21.20;99.90;;;;;;5050039;28;20455;-82
2022/07/07 12:57:00;;;;;;;3.20;0.80;;;21.10;99.90;;;;;;5052516;28;20526;-83
2022/07/07 12:59:27;;;;;;;2.20;0.90;;;21.20;99.90;;;;;;5050063;28;20874;-80